Time;durP1;ratioP1;P1;durP2;ratioP2;P2;SDS_P1;SDS_P2;PMS_P1;PMS_P2;Temp;Humidity;BMP_temperature;BMP_pressure;BME280_temperature;BME280_humidity;BME280_pressure;Samples;Min_cycle;Max_cycle;Signal;HPM_P1;HPM_P2
2022/12/11 00:01:38;;;;;;;20.57;11.73;;;;;;;-2.85;100.00;98060.34;4216240;27;20289;-47
2022/12/11 00:03:39;;;;;;;14.00;12.60;;;;;;;-2.89;100.00;98059.00;4191077;28;20243;-48
2022/12/11 00:05:42;;;;;;;14.90;13.53;;;;;;;-2.91;100.00;98050.34;4201747;28;20600;-49
2022/12/11 00:07:43;;;;;;;13.33;11.43;;;;;;;-3.02;100.00;98058.78;4219730;27;20232;-49
2022/12/11 00:09:45;;;;;;;17.30;12.03;;;;;;;-2.97;100.00;98061.75;4190779;28;20266;-49
2022/12/11 00:11:47;;;;;;;11.77;10.57;;;;;;;-2.88;100.00;98055.34;4190153;28;20217;-49
2022/12/11 00:13:49;;;;;;;15.60;11.60;;;;;;;-2.89;100.00;98059.84;4203474;28;20260;-48
2022/12/11 00:15:51;;;;;;;10.87;9.83;;;;;;;-2.89;100.00;98067.88;4200296;28;20618;-48
2022/12/11 00:17:53;;;;;;;10.33;9.50;;;;;;;-2.83;100.00;98063.66;4185528;28;20346;-49
2022/12/11 00:19:54;;;;;;;10.50;9.67;;;;;;;-2.76;100.00;98053.91;4187405;28;20216;-49
2022/12/11 00:21:56;;;;;;;11.30;10.37;;;;;;;-2.84;100.00;98049.47;4202889;28;20207;-50
2022/12/11 00:23:58;;;;;;;13.30;11.90;;;;;;;-2.86;100.00;98042.63;4218438;27;20868;-50
2022/12/11 00:26:03;;;;;;;10.33;9.53;;;;;;;-2.64;100.00;98039.09;4218264;27;20206;-49
2022/12/11 00:28:05;;;;;;;10.33;9.60;;;;;;;-2.84;100.00;98046.78;4199507;28;20207;-49
2022/12/11 00:30:07;;;;;;;17.73;10.57;;;;;;;-2.87;100.00;98047.13;4198767;28;20237;-49
2022/12/11 00:32:09;;;;;;;10.67;9.73;;;;;;;-2.92;100.00;98043.31;4207406;28;20645;-49
2022/12/11 00:34:11;;;;;;;12.60;9.50;;;;;;;-2.79;100.00;98038.22;4220013;28;20198;-48
2022/12/11 00:36:15;;;;;;;13.60;10.00;;;;;;;-2.80;100.00;98031.19;4200238;28;20291;-48
2022/12/11 00:38:19;;;;;;;11.40;10.27;;;;;;;-2.67;100.00;98042.13;4207537;28;20374;-48
2022/12/11 00:40:21;;;;;;;10.73;9.63;;;;;;;-2.80;100.00;98039.22;4206697;28;20214;-48
2022/12/11 00:42:23;;;;;;;9.73;8.83;;;;;;;-2.80;100.00;98040.03;4189745;28;20207;-49
2022/12/11 00:44:25;;;;;;;10.27;9.33;;;;;;;-2.76;100.00;98027.97;4207457;28;20302;-48
2022/12/11 00:46:27;;;;;;;18.00;8.93;;;;;;;-2.76;100.00;98027.97;4202392;28;20685;-48
2022/12/11 00:48:29;;;;;;;12.37;11.20;;;;;;;-2.67;100.00;98031.44;4203840;28;20237;-48
2022/12/11 00:50:32;;;;;;;12.00;10.90;;;;;;;-2.56;100.00;98039.00;4189420;28;20250;-48
2022/12/11 00:52:33;;;;;;;11.40;10.30;;;;;;;-2.62;100.00;98039.75;4196798;28;20297;-48
2022/12/11 00:54:35;;;;;;;12.90;11.20;;;;;;;-2.66;100.00;98038.44;4219857;27;20207;-49
2022/12/11 00:56:37;;;;;;;10.20;9.30;;;;;;;-2.54;100.00;98039.69;4204853;28;20713;-48
2022/12/11 00:58:39;;;;;;;12.20;10.73;;;;;;;-2.57;100.00;98038.19;4201939;28;20669;-48
2022/12/11 01:00:42;;;;;;;13.20;11.90;;;;;;;-2.51;100.00;98047.34;4218341;27;20572;-47
2022/12/11 01:02:44;;;;;;;12.07;11.07;;;;;;;-2.52;100.00;98040.34;4201236;28;20241;-48
2022/12/11 01:04:46;;;;;;;11.93;10.73;;;;;;;-2.54;100.00;98042.38;4205890;28;20696;-48
2022/12/11 01:06:47;;;;;;;11.53;10.63;;;;;;;-2.50;100.00;98038.31;4218318;27;20226;-48
2022/12/11 01:10:22;;;;;;;11.97;10.90;;;;;;;-2.60;100.00;98046.56;4190846;28;20219;-48
2022/12/11 01:11:15;;;;;;;11.43;9.50;;;;;;;-2.42;100.00;98040.94;4218436;28;20210;-48
2022/12/11 01:13:17;;;;;;;11.90;10.63;;;;;;;-2.43;100.00;98044.59;4204169;28;20206;-49
2022/12/11 01:15:21;;;;;;;10.90;9.93;;;;;;;-2.44;100.00;98040.25;4217924;27;20214;-49
2022/12/11 01:17:23;;;;;;;11.43;10.37;;;;;;;-2.59;100.00;98034.03;4199783;28;20301;-48
2022/12/11 01:19:25;;;;;;;10.87;9.97;;;;;;;-2.57;100.00;98042.72;4219388;27;20631;-47
2022/12/11 01:21:27;;;;;;;12.57;11.30;;;;;;;-2.59;100.00;98050.94;4203082;28;20221;-49
2022/12/11 01:23:28;;;;;;;11.17;10.33;;;;;;;-2.64;100.00;98047.13;4199022;28;20804;-48
2022/12/11 01:25:32;;;;;;;12.27;10.40;;;;;;;-2.74;100.00;98046.53;4200548;28;20326;-48
2022/12/11 01:27:33;;;;;;;12.60;11.50;;;;;;;-2.68;100.00;98057.34;4217549;27;20227;-47
2022/12/11 01:29:35;;;;;;;14.67;10.17;;;;;;;-2.77;100.00;98046.88;4187182;28;20200;-48
2022/12/11 01:31:37;;;;;;;12.80;11.50;;;;;;;-2.78;100.00;98046.06;4201374;28;20234;-48
2022/12/11 01:33:39;;;;;;;13.27;12.03;;;;;;;-2.72;100.00;98048.03;4188671;28;20242;-48
2022/12/11 01:35:41;;;;;;;13.43;12.43;;;;;;;-2.79;100.00;98047.09;4219978;27;20209;-47
2022/12/11 01:37:43;;;;;;;10.93;9.97;;;;;;;-2.82;100.00;98049.28;4203328;28;20629;-48
2022/12/11 01:39:45;;;;;;;11.57;10.43;;;;;;;-2.81;100.00;98050.94;4196634;28;20207;-48
2022/12/11 01:41:46;;;;;;;11.50;10.53;;;;;;;-2.72;100.00;98061.41;4200738;28;20214;-48
2022/12/11 01:43:57;;;;;;;11.17;10.20;;;;;;;-2.61;100.00;98062.84;4187948;28;20239;-47
2022/12/11 01:45:59;;;;;;;10.17;9.37;;;;;;;-2.83;100.00;98052.94;4204923;28;20202;-48
2022/12/11 01:48:10;;;;;;;16.33;9.97;;;;;;;-2.84;100.00;98056.63;4214699;27;20669;-47
2022/12/11 01:50:12;;;;;;;10.20;9.33;;;;;;;-2.86;100.00;98054.13;4200426;28;20290;-47
2022/12/11 01:52:19;;;;;;;13.17;10.70;;;;;;;-2.88;100.00;98061.50;4203813;28;20916;-48
2022/12/11 01:54:22;;;;;;;11.17;10.27;;;;;;;-2.95;100.00;98063.22;4205351;28;20199;-48
2022/12/11 01:56:24;;;;;;;13.83;12.00;;;;;;;-2.93;100.00;98069.22;4198060;28;20251;-48
2022/12/11 01:58:29;;;;;;;11.97;10.77;;;;;;;-2.87;100.00;98065.03;4198965;28;20234;-48
2022/12/11 02:00:30;;;;;;;11.40;10.40;;;;;;;-2.79;100.00;98070.31;4202087;28;20368;-48
2022/12/11 02:02:32;;;;;;;13.00;11.80;;;;;;;-2.59;100.00;98071.53;4214349;27;20677;-47
2022/12/11 02:04:36;;;;;;;10.07;9.27;;;;;;;-2.63;100.00;98064.84;4198694;28;20218;-48
2022/12/11 02:06:44;;;;;;;10.47;9.57;;;;;;;-2.64;100.00;98073.91;4215520;28;20253;-47
2022/12/11 02:08:45;;;;;;;13.13;11.93;;;;;;;-2.48;100.00;98068.44;4205584;28;20300;-47
2022/12/11 02:11:18;;;;;;;13.77;12.33;;;;;;;-2.44;100.00;98061.69;4199582;28;20210;-47
2022/12/11 02:13:32;;;;;;;11.73;9.10;;;;;;;-2.54;100.00;98066.47;4213633;27;20241;-49
2022/12/11 02:15:46;;;;;;;12.87;11.67;;;;;;;-2.54;100.00;98074.50;4204114;28;20303;-47
2022/12/11 02:17:51;;;;;;;13.00;11.67;;;;;;;-2.52;100.00;98075.16;4219675;27;20710;-47
2022/12/11 02:20:05;;;;;;;13.03;11.83;;;;;;;-2.52;100.00;98067.97;4200771;28;20257;-47
2022/12/11 02:22:12;;;;;;;11.60;10.53;;;;;;;-2.44;100.00;98081.28;4199501;28;20230;-47
2022/12/11 02:24:24;;;;;;;13.33;12.10;;;;;;;-2.36;100.00;98072.31;4204808;28;20203;-48
2022/12/11 02:26:59;;;;;;;11.93;10.93;;;;;;;-2.38;100.00;98082.38;4188413;28;20262;-47
2022/12/11 02:29:05;;;;;;;11.67;10.70;;;;;;;-2.43;100.00;98069.53;4203008;28;20290;-47
2022/12/11 02:31:13;;;;;;;11.13;10.23;;;;;;;-2.52;100.00;98081.34;4214908;28;20574;-47
2022/12/11 02:33:15;;;;;;;12.83;11.63;;;;;;;-2.44;100.00;98080.44;4217025;28;20235;-47
2022/12/11 02:35:37;;;;;;;14.60;11.90;;;;;;;-2.42;100.00;98078.44;4199633;28;20234;-48
2022/12/11 02:37:41;;;;;;;11.97;11.00;;;;;;;-2.31;100.00;98069.94;4190035;28;20719;-47
2022/12/11 02:39:44;;;;;;;13.23;11.07;;;;;;;-2.26;100.00;98080.97;4199329;28;20655;-47
2022/12/11 02:41:49;;;;;;;14.07;12.30;;;;;;;-2.32;100.00;98073.63;4205451;28;20297;-48
2022/12/11 02:43:52;;;;;;;11.90;10.73;;;;;;;-2.31;100.00;98060.06;4182800;28;20290;-47
2022/12/11 02:45:54;;;;;;;14.20;12.87;;;;;;;-2.21;100.00;98057.16;4198468;28;22285;-47
2022/12/11 02:47:58;;;;;;;13.33;12.23;;;;;;;-2.16;100.00;98063.59;4201767;28;20650;-48
2022/12/11 02:50:01;;;;;;;11.37;10.37;;;;;;;-2.16;100.00;98062.75;4201134;28;20207;-47
2022/12/11 02:52:05;;;;;;;12.63;11.43;;;;;;;-2.24;100.00;98052.13;4215084;28;20234;-47
2022/12/11 02:54:20;;;;;;;14.50;11.37;;;;;;;-2.19;100.00;98057.78;4199034;28;20245;-48
2022/12/11 02:56:44;;;;;;;11.43;10.30;;;;;;;-2.21;100.00;98044.56;4202415;28;20237;-48
2022/12/11 02:58:49;;;;;;;14.20;12.90;;;;;;;-2.20;100.00;98050.75;4203762;28;20293;-47
2022/12/11 03:00:58;;;;;;;11.50;10.40;;;;;;;-2.20;100.00;98056.13;4188622;28;20199;-47
2022/12/11 03:03:01;;;;;;;16.00;11.93;;;;;;;-2.14;100.00;98050.03;4205393;28;20254;-47
2022/12/11 03:05:03;;;;;;;13.30;11.50;;;;;;;-2.13;100.00;98057.06;4219071;28;20203;-48
2022/12/11 03:07:14;;;;;;;13.70;12.37;;;;;;;-2.11;100.00;98057.69;4200759;28;20282;-47
2022/12/11 03:09:16;;;;;;;12.80;11.60;;;;;;;-2.08;100.00;98060.03;4198983;28;20258;-47
2022/12/11 03:11:18;;;;;;;13.97;12.57;;;;;;;-2.01;100.00;98051.06;4207842;28;20705;-47
2022/12/11 03:13:21;;;;;;;14.77;13.27;;;;;;;-2.16;100.00;98052.03;4187292;28;20245;-46
2022/12/11 03:15:34;;;;;;;15.17;13.70;;;;;;;-2.08;100.00;98049.31;4204974;28;20206;-48
2022/12/11 03:17:51;;;;;;;24.23;11.83;;;;;;;-2.11;100.00;98053.19;4204648;28;20317;-47
2022/12/11 03:20:21;;;;;;;12.30;11.20;;;;;;;-2.11;100.00;98053.19;4205128;28;20352;-48
2022/12/11 03:22:41;;;;;;;14.83;13.03;;;;;;;-2.15;100.00;98056.41;4202125;28;20219;-47
2022/12/11 03:25:22;;;;;;;15.10;13.53;;;;;;;-2.14;100.00;98060.75;4207399;28;20220;-47
2022/12/11 03:28:03;;;;;;;16.77;15.07;;;;;;;-2.17;100.00;98061.94;4173353;28;20319;-47
2022/12/11 03:30:07;;;;;;;18.00;13.00;;;;;;;-2.29;100.00;98065.22;4202013;28;20344;-47
2022/12/11 03:32:14;;;;;;;14.90;13.67;;;;;;;-2.16;100.00;98052.03;4222826;27;20197;-47
2022/12/11 03:34:24;;;;;;;13.83;12.37;;;;;;;-2.10;100.00;98056.69;4202521;28;20231;-48
2022/12/11 03:36:35;;;;;;;13.40;12.00;;;;;;;-2.11;100.00;98055.03;4191801;28;20258;-47
2022/12/11 03:38:45;;;;;;;16.47;13.83;;;;;;;-2.13;100.00;98062.41;4201880;28;20913;-48
2022/12/11 03:40:51;;;;;;;14.87;12.87;;;;;;;-2.13;100.00;98057.06;4219490;27;20308;-48
2022/12/11 03:42:55;;;;;;;15.70;14.03;;;;;;;-2.22;100.00;98056.28;4198819;28;20214;-48
2022/12/11 03:44:59;;;;;;;18.13;14.73;;;;;;;-2.16;100.00;98057.41;4203543;28;20195;-49
2022/12/11 03:47:02;;;;;;;17.57;15.73;;;;;;;-2.14;100.00;98058.88;4188224;28;20223;-48
2022/12/11 03:49:12;;;;;;;16.87;14.47;;;;;;;-2.16;100.00;98055.56;4205929;28;20638;-48
2022/12/11 03:51:14;;;;;;;17.47;14.77;;;;;;;-2.14;100.00;98055.41;4217729;27;20568;-48
2022/12/11 03:53:17;;;;;;;21.07;16.63;;;;;;;-2.09;100.00;98061.88;4204779;28;20203;-48
2022/12/11 03:55:20;;;;;;;17.77;15.07;;;;;;;-2.09;100.00;98058.34;4217541;28;20226;-48
2022/12/11 03:57:26;;;;;;;16.07;14.07;;;;;;;-1.98;100.00;98055.22;4202137;28;20262;-48
2022/12/11 03:59:27;;;;;;;23.10;16.07;;;;;;;-2.21;100.00;98057.16;4218620;27;20198;-48
2022/12/11 04:01:29;;;;;;;15.50;13.97;;;;;;;-2.12;100.00;98058.72;4186885;28;20309;-48
2022/12/11 04:03:31;;;;;;;16.93;15.13;;;;;;;-2.14;100.00;98071.47;4205576;28;20221;-48
2022/12/11 04:05:33;;;;;;;15.90;14.20;;;;;;;-2.26;100.00;98070.25;4217915;28;20677;-48
2022/12/11 04:07:35;;;;;;;20.73;18.67;;;;;;;-2.19;100.00;98060.47;4201224;28;22429;-49
2022/12/11 04:09:36;;;;;;;19.80;16.07;;;;;;;-2.16;100.00;98065.44;4216348;27;20242;-49
2022/12/11 04:11:38;;;;;;;15.57;13.80;;;;;;;-2.15;100.00;98059.09;4205785;28;20668;-50
2022/12/11 04:13:40;;;;;;;18.67;16.13;;;;;;;-2.23;100.00;98057.31;4204611;28;20301;-48
2022/12/11 04:15:42;;;;;;;20.27;17.40;;;;;;;-2.20;100.00;98050.75;4208310;28;20218;-48
2022/12/11 04:25:04;;;;;;;15.43;13.70;;;;;;;-2.08;100.00;98057.34;4205929;28;20199;-48
2022/12/11 04:27:06;;;;;;;20.43;15.13;;;;;;;-1.94;100.00;98056.53;4205518;28;20983;-48
2022/12/11 04:29:08;;;;;;;17.27;14.97;;;;;;;-1.96;100.00;98053.19;4187441;28;20286;-48
2022/12/11 04:31:15;;;;;;;20.73;16.63;;;;;;;-2.01;100.00;98055.59;4192924;28;20778;-48
2022/12/11 04:33:17;;;;;;;18.07;16.23;;;;;;;-2.01;100.00;98060.97;4217934;28;20598;-49
2022/12/11 04:35:20;;;;;;;20.87;15.37;;;;;;;-1.98;100.00;98055.22;4203399;28;20203;-48
2022/12/11 04:37:21;;;;;;;23.73;17.53;;;;;;;-1.96;100.00;98047.81;4203141;28;20731;-48
2022/12/11 04:39:23;;;;;;;19.17;15.20;;;;;;;-1.93;100.00;98037.56;4180531;28;20207;-48
2022/12/11 04:41:25;;;;;;;18.63;14.80;;;;;;;-1.99;100.00;98049.06;4199347;28;20235;-50
2022/12/11 04:43:27;;;;;;;16.67;14.47;;;;;;;-1.89;100.00;98040.75;4208306;28;20238;-49
2022/12/11 04:45:29;;;;;;;24.17;18.73;;;;;;;-2.02;100.00;98043.22;4199664;28;20312;-48
2022/12/11 04:47:31;;;;;;;17.00;15.20;;;;;;;-1.97;100.00;98035.44;4203908;28;20222;-48
2022/12/11 04:49:32;;;;;;;24.93;16.83;;;;;;;-1.91;100.00;98032.03;4194208;28;20207;-48
2022/12/11 04:51:34;;;;;;;18.53;15.40;;;;;;;-2.01;100.00;98031.50;4187795;28;20655;-48
2022/12/11 04:53:36;;;;;;;20.03;16.93;;;;;;;-2.05;100.00;98022.13;4201543;28;20249;-49
2022/12/11 04:55:38;;;;;;;20.63;16.23;;;;;;;-2.00;100.00;98031.28;4205571;28;20261;-48
2022/12/11 04:57:40;;;;;;;20.47;14.23;;;;;;;-1.88;100.00;98029.81;4204782;28;20317;-48
2022/12/11 04:59:42;;;;;;;21.40;15.70;;;;;;;-2.05;100.00;98027.50;4207533;28;20213;-49
2022/12/11 05:01:44;;;;;;;28.47;16.60;;;;;;;-1.92;100.00;98023.19;4220512;27;20284;-49
2022/12/11 05:03:46;;;;;;;21.53;17.30;;;;;;;-1.96;100.00;98031.75;4198470;28;20297;-49
2022/12/11 05:05:52;;;;;;;23.83;17.23;;;;;;;-1.79;100.00;98023.38;4197505;28;20221;-48
2022/12/11 05:07:53;;;;;;;21.23;16.77;;;;;;;-1.96;100.00;98026.38;4220630;27;20621;-48
2022/12/11 05:09:55;;;;;;;23.30;15.27;;;;;;;-2.10;100.00;98024.53;4175274;28;20331;-48
2022/12/11 05:11:57;;;;;;;27.23;16.13;;;;;;;-1.97;100.00;98019.38;4217952;27;20206;-49
2022/12/11 05:13:59;;;;;;;21.37;14.63;;;;;;;-2.05;100.00;98022.13;4217017;27;20228;-48
2022/12/11 05:16:03;;;;;;;20.20;15.07;;;;;;;-1.94;100.00;98014.47;4216955;27;20255;-49
2022/12/11 05:18:05;;;;;;;20.47;16.03;;;;;;;-2.05;100.00;98016.78;4204437;28;20226;-49
2022/12/11 05:20:08;;;;;;;28.40;17.90;;;;;;;-2.03;100.00;98012.06;4218465;27;20202;-48
2022/12/11 05:22:10;;;;;;;25.37;15.80;;;;;;;-2.08;100.00;98009.94;4199785;28;20214;-48
2022/12/11 05:24:12;;;;;;;22.57;17.50;;;;;;;-2.06;100.00;98010.59;4199065;28;20241;-48
2022/12/11 05:26:16;;;;;;;26.83;16.67;;;;;;;-2.07;100.00;98008.09;4201377;28;20265;-49
2022/12/11 05:28:18;;;;;;;20.03;17.87;;;;;;;-2.09;100.00;98018.16;4205405;28;20231;-49
2022/12/11 05:30:20;;;;;;;19.10;17.07;;;;;;;-2.12;100.00;98005.13;4200413;28;20198;-48
2022/12/11 05:32:22;;;;;;;31.20;17.33;;;;;;;-2.13;100.00;98011.50;4196946;28;20615;-48
2022/12/11 05:34:24;;;;;;;18.20;16.03;;;;;;;-1.92;100.00;98012.47;4205669;28;20211;-49
2022/12/11 05:36:31;;;;;;;24.80;16.63;;;;;;;-2.01;100.00;98004.69;4214979;27;20222;-48
2022/12/11 05:38:33;;;;;;;21.17;15.53;;;;;;;-1.93;100.00;98016.13;4200167;28;20223;-49
2022/12/11 05:40:35;;;;;;;25.90;17.70;;;;;;;-1.85;100.00;98005.34;4214134;27;20811;-49
2022/12/11 05:42:37;;;;;;;17.53;15.63;;;;;;;-1.89;100.00;98008.59;4198350;28;20405;-48
2022/12/11 05:44:39;;;;;;;18.60;16.80;;;;;;;-1.91;100.00;98010.59;4215833;28;20207;-48
2022/12/11 05:46:40;;;;;;;21.03;16.80;;;;;;;-1.94;100.00;98011.78;4205365;28;20270;-49
2022/12/11 05:48:44;;;;;;;31.87;16.77;;;;;;;-1.92;100.00;98014.28;4184214;28;20204;-49
2022/12/11 05:50:59;;;;;;;21.43;15.90;;;;;;;-1.85;100.00;98007.19;4198660;28;20203;-48
2022/12/11 05:53:01;;;;;;;23.37;16.80;;;;;;;-1.70;100.00;98006.16;4199549;28;20248;-50
2022/12/11 05:55:03;;;;;;;24.23;17.50;;;;;;;-1.84;100.00;98003.47;4191676;28;20200;-48
2022/12/11 05:57:05;;;;;;;23.23;16.73;;;;;;;-1.85;100.00;98007.19;4199944;28;20246;-47
2022/12/11 05:59:07;;;;;;;36.43;17.87;;;;;;;-1.87;100.00;98009.22;4199830;28;20282;-49
2022/12/11 06:01:11;;;;;;;25.50;15.93;;;;;;;-1.85;100.00;98001.81;4215545;27;20207;-49
2022/12/11 06:03:13;;;;;;;30.37;17.17;;;;;;;-1.77;100.00;98009.75;4204320;28;20268;-50
2022/12/11 06:05:16;;;;;;;24.83;17.33;;;;;;;-1.80;100.00;98007.47;4204725;28;20211;-48
2022/12/11 06:07:17;;;;;;;26.60;17.90;;;;;;;-1.87;100.00;98003.84;4186541;28;20598;-48
2022/12/11 06:09:19;;;;;;;24.30;17.07;;;;;;;-1.70;100.00;97999.94;4197733;28;20226;-48
2022/12/11 06:11:22;;;;;;;21.93;15.17;;;;;;;-1.78;100.00;98005.41;4202491;28;20241;-48
2022/12/11 06:13:25;;;;;;;24.97;18.30;;;;;;;-1.77;100.00;97999.03;4208206;27;20298;-48
2022/12/11 06:15:27;;;;;;;25.10;17.77;;;;;;;-1.75;100.00;98002.38;4211817;27;20232;-49
2022/12/11 06:17:29;;;;;;;27.10;16.90;;;;;;;-1.70;100.00;97994.59;4208640;27;20226;-50
2022/12/11 06:19:31;;;;;;;20.03;15.07;;;;;;;-1.74;100.00;97988.78;4208539;27;20256;-49
2022/12/11 06:21:37;;;;;;;24.33;15.67;;;;;;;-1.75;100.00;97986.28;4196646;28;20211;-49
2022/12/11 06:23:40;;;;;;;23.97;17.50;;;;;;;-1.77;100.00;97982.94;4178716;28;20219;-48
2022/12/11 06:25:42;;;;;;;37.73;15.97;;;;;;;-1.64;100.00;97983.13;4196077;28;20206;-48
2022/12/11 06:27:43;;;;;;;28.13;17.47;;;;;;;-1.71;100.00;97983.06;4215384;28;20261;-49
2022/12/11 06:29:45;;;;;;;21.67;16.47;;;;;;;-1.69;100.00;97990.91;4180302;28;20243;-49
2022/12/11 06:31:47;;;;;;;29.27;18.43;;;;;;;-1.82;100.00;97990.75;4203211;28;20202;-49
2022/12/11 06:33:49;;;;;;;28.13;16.60;;;;;;;-1.72;100.00;97996.63;4213809;27;20201;-49
2022/12/11 06:35:51;;;;;;;27.43;16.57;;;;;;;-1.86;100.00;97994.78;4193386;28;20272;-48
2022/12/11 06:37:53;;;;;;;22.03;14.60;;;;;;;-1.80;100.00;97994.06;4213201;27;20282;-48
2022/12/11 06:39:55;;;;;;;25.90;16.70;;;;;;;-1.80;100.00;97994.06;4199731;28;20244;-48
2022/12/11 06:41:57;;;;;;;28.63;17.30;;;;;;;-1.74;100.00;97985.28;4200944;28;20249;-49
2022/12/11 06:43:58;;;;;;;22.47;15.60;;;;;;;-1.63;100.00;97990.97;4194713;28;20280;-49
2022/12/11 06:46:08;;;;;;;26.57;15.47;;;;;;;-1.76;100.00;97990.81;4204426;28;20208;-48
2022/12/11 06:48:10;;;;;;;22.00;13.53;;;;;;;-1.70;100.00;97998.13;4196722;28;20925;-49
2022/12/11 06:50:12;;;;;;;25.63;16.63;;;;;;;-1.61;100.00;97993.50;4179259;28;20896;-48
2022/12/11 06:52:14;;;;;;;26.23;15.87;;;;;;;-1.70;100.00;97989.22;4195211;28;20237;-49
2022/12/11 06:54:26;;;;;;;21.23;15.00;;;;;;;-1.71;100.00;97988.41;4184426;28;20288;-48
2022/12/11 06:56:28;;;;;;;32.30;16.20;;;;;;;-1.67;100.00;97999.59;4191609;28;20217;-49
2022/12/11 06:58:30;;;;;;;33.13;18.33;;;;;;;-1.63;100.00;97990.97;4178269;28;20230;-48
2022/12/11 07:00:34;;;;;;;29.83;15.37;;;;;;;-1.71;100.00;97995.59;4201760;28;20220;-49
2022/12/11 07:02:36;;;;;;;20.03;13.77;;;;;;;-1.62;100.00;97999.88;4194084;28;20330;-49
2022/12/11 07:04:38;;;;;;;24.53;15.80;;;;;;;-1.75;100.00;97997.03;4194031;28;21816;-49
2022/12/11 07:06:40;;;;;;;17.17;14.90;;;;;;;-1.72;100.00;98002.00;4212669;28;20380;-49
2022/12/11 07:08:42;;;;;;;28.80;15.97;;;;;;;-1.67;100.00;98002.28;4201062;28;20202;-48
2022/12/11 07:10:44;;;;;;;22.07;15.10;;;;;;;-1.68;100.00;98003.28;4189083;28;20207;-48
2022/12/11 07:12:46;;;;;;;17.27;14.47;;;;;;;-1.69;100.00;98001.63;4192248;28;20640;-48
2022/12/11 07:14:48;;;;;;;34.30;17.27;;;;;;;-1.72;100.00;98002.84;4185128;28;20321;-48
2022/12/11 07:16:49;;;;;;;23.73;15.70;;;;;;;-1.74;100.00;98004.84;4183672;28;20258;-49
2022/12/11 07:18:51;;;;;;;27.13;15.63;;;;;;;-1.65;100.00;98001.06;4196773;28;20237;-48
2022/12/11 07:20:53;;;;;;;33.83;17.90;;;;;;;-1.73;100.00;98011.06;4210769;28;20780;-48
2022/12/11 07:22:55;;;;;;;21.33;14.90;;;;;;;-1.65;100.00;98005.59;4196729;28;20216;-49
2022/12/11 07:24:57;;;;;;;28.17;16.00;;;;;;;-1.61;100.00;98009.56;4191913;28;20263;-48
2022/12/11 07:26:59;;;;;;;21.20;13.37;;;;;;;-1.72;100.00;98008.19;4197204;28;21866;-48
2022/12/11 07:29:00;;;;;;;22.00;14.67;;;;;;;-1.57;100.00;98005.50;4193615;28;20234;-48
2022/12/11 07:31:16;;;;;;;22.27;16.07;;;;;;;-1.70;100.00;98010.69;4194921;28;20202;-47
2022/12/11 07:33:18;;;;;;;22.53;15.60;;;;;;;-1.60;100.00;98011.22;4212825;28;20218;-48
2022/12/11 07:35:19;;;;;;;22.33;14.53;;;;;;;-1.64;100.00;98010.78;4203726;28;20294;-48
2022/12/11 07:37:21;;;;;;;21.77;14.50;;;;;;;-1.75;100.00;98007.75;4180694;28;20247;-47
2022/12/11 07:39:23;;;;;;;23.93;15.60;;;;;;;-1.71;100.00;98007.19;4195744;28;20219;-46
2022/12/11 07:41:27;;;;;;;23.60;14.87;;;;;;;-1.69;100.00;98010.50;4198648;28;20716;-48
2022/12/11 07:43:29;;;;;;;23.53;14.30;;;;;;;-1.66;100.00;98012.81;4202292;28;20203;-48
2022/12/11 07:45:31;;;;;;;31.40;16.33;;;;;;;-1.65;100.00;98010.97;4180076;28;20230;-47
2022/12/11 07:47:33;;;;;;;25.23;15.83;;;;;;;-1.68;100.00;98008.66;4191749;28;20257;-48
2022/12/11 07:49:34;;;;;;;21.27;15.73;;;;;;;-1.67;100.00;98011.13;4213189;28;20213;-48
2022/12/11 07:51:37;;;;;;;30.03;15.53;;;;;;;-1.58;100.00;98010.03;4211915;28;20267;-47
2022/12/11 07:53:39;;;;;;;25.40;15.90;;;;;;;-1.59;100.00;98015.56;4198990;28;20235;-48
2022/12/11 07:55:41;;;;;;;27.43;15.43;;;;;;;-1.61;100.00;98014.94;4195840;28;20349;-48
2022/12/11 07:57:43;;;;;;;22.33;16.10;;;;;;;-1.65;100.00;98019.00;4184247;28;20254;-47
2022/12/11 07:59:45;;;;;;;26.13;15.43;;;;;;;-1.63;100.00;98011.59;4221352;27;20230;-47
2022/12/11 08:01:47;;;;;;;20.47;14.77;;;;;;;-1.64;100.00;98007.25;4215056;27;20289;-48
2022/12/11 08:03:49;;;;;;;29.13;19.03;;;;;;;-1.63;100.00;98023.16;4201513;28;20370;-47
2022/12/11 08:05:52;;;;;;;22.10;16.37;;;;;;;-1.64;100.00;98016.13;4199815;28;20211;-48
2022/12/11 08:07:54;;;;;;;23.10;15.00;;;;;;;-1.61;100.00;98020.31;4214565;27;20213;-47
2022/12/11 08:09:56;;;;;;;27.33;16.83;;;;;;;-1.61;100.00;98012.25;4200970;28;20302;-48
2022/12/11 08:11:58;;;;;;;22.83;15.13;;;;;;;-1.54;100.00;98005.13;4214975;27;20259;-47
2022/12/11 08:13:59;;;;;;;26.40;16.03;;;;;;;-1.51;100.00;98010.09;4217778;27;20244;-48
2022/12/11 08:16:06;;;;;;;30.10;15.97;;;;;;;-1.44;100.00;98016.38;4202937;28;20210;-48
2022/12/11 08:18:08;;;;;;;20.63;15.33;;;;;;;-1.41;100.00;98016.84;4202484;28;20278;-48
2022/12/11 08:20:10;;;;;;;29.57;15.30;;;;;;;-1.51;100.00;98005.59;4219323;27;20230;-48
2022/12/11 08:22:13;;;;;;;24.00;16.80;;;;;;;-1.58;100.00;98010.03;4203930;28;20207;-52
2022/12/11 08:24:19;;;;;;;25.83;15.83;;;;;;;-1.51;100.00;98010.09;4203390;28;20295;-48
2022/12/11 08:26:23;;;;;;;29.10;17.53;;;;;;;-1.44;100.00;98016.38;4202160;28;20260;-48
2022/12/11 08:28:25;;;;;;;33.83;15.93;;;;;;;-1.37;100.00;98022.66;4203910;28;20795;-48
2022/12/11 08:30:27;;;;;;;25.23;15.97;;;;;;;-1.52;100.00;98020.03;4203996;28;20279;-49
2022/12/11 08:32:29;;;;;;;23.27;17.27;;;;;;;-1.54;100.00;98026.59;4216107;27;20206;-49
2022/12/11 08:34:32;;;;;;;24.23;16.33;;;;;;;-1.53;100.00;98017.50;4188904;28;20207;-48
2022/12/11 08:36:33;;;;;;;22.03;17.07;;;;;;;-1.43;100.00;98026.09;4200348;28;20767;-48
2022/12/11 08:38:36;;;;;;;18.70;13.90;;;;;;;-1.50;100.00;98023.34;4207449;28;22347;-48
2022/12/11 08:40:38;;;;;;;24.80;14.23;;;;;;;-1.44;100.00;98030.63;4199994;28;20246;-48
2022/12/11 08:42:39;;;;;;;29.33;16.00;;;;;;;-1.41;100.00;98026.75;4217662;28;20206;-47
2022/12/11 08:44:41;;;;;;;26.70;15.10;;;;;;;-1.41;100.00;98032.13;4217263;27;20209;-48
2022/12/11 08:46:43;;;;;;;21.60;14.57;;;;;;;-1.44;100.00;98027.97;4201410;28;20230;-47
2022/12/11 08:48:45;;;;;;;25.33;16.17;;;;;;;-1.46;100.00;98030.00;4201951;28;20289;-48
2022/12/11 08:50:46;;;;;;;29.67;16.73;;;;;;;-1.40;100.00;98018.50;4203499;28;20302;-48
2022/12/11 08:52:48;;;;;;;25.33;16.20;;;;;;;-1.33;100.00;98018.59;4198513;28;20712;-48
2022/12/11 08:54:50;;;;;;;37.57;16.20;;;;;;;-1.36;100.00;98029.69;4204064;28;20309;-48
2022/12/11 08:56:51;;;;;;;20.80;13.13;;;;;;;-1.29;100.00;98025.25;4198434;28;20327;-49
2022/12/11 08:58:59;;;;;;;21.17;15.40;;;;;;;-1.26;100.00;98030.25;4200527;28;20273;-48
2022/12/11 09:01:08;;;;;;;28.40;16.53;;;;;;;-1.22;100.00;98020.81;4203841;28;20205;-48
2022/12/11 09:03:10;;;;;;;20.43;15.40;;;;;;;-1.32;100.00;98018.41;4217200;27;20217;-47
2022/12/11 09:05:13;;;;;;;14.73;13.20;;;;;;;-1.23;100.00;98024.47;4216330;27;20268;-48
2022/12/11 09:07:15;;;;;;;24.90;15.77;;;;;;;-1.29;100.00;98020.72;4198692;28;20270;-48
2022/12/11 09:09:17;;;;;;;21.87;15.53;;;;;;;-1.20;100.00;98016.06;4204476;28;20253;-48
2022/12/11 09:11:22;;;;;;;18.03;13.70;;;;;;;-1.22;100.00;98016.25;4217908;27;20305;-49
2022/12/11 09:13:23;;;;;;;20.37;14.03;;;;;;;-1.12;100.00;98010.59;4202706;28;20281;-48
2022/12/11 09:15:25;;;;;;;25.80;13.07;;;;;;;-1.32;100.00;98012.22;4202127;28;20633;-49
2022/12/11 09:17:27;;;;;;;17.93;15.67;;;;;;;-1.26;100.00;98008.78;4198778;28;20301;-48
2022/12/11 09:19:28;;;;;;;16.27;13.37;;;;;;;-1.17;100.00;97996.91;4201421;28;20259;-48
2022/12/11 09:21:33;;;;;;;21.30;14.43;;;;;;;-1.14;100.00;97996.53;4200017;28;20646;-48
2022/12/11 09:23:35;;;;;;;18.57;15.50;;;;;;;-1.20;100.00;97997.28;4182109;28;20307;-49
2022/12/11 09:25:39;;;;;;;16.17;14.53;;;;;;;-1.08;100.00;98001.16;4185199;28;20208;-48
2022/12/11 09:27:41;;;;;;;20.27;14.50;;;;;;;-1.17;100.00;97996.91;4210504;27;20234;-48
2022/12/11 09:29:42;;;;;;;16.53;13.00;;;;;;;-1.16;100.00;97995.88;4218880;28;20313;-48
2022/12/11 09:31:45;;;;;;;22.07;15.33;;;;;;;-1.14;100.00;98001.91;4199619;28;20812;-48